Dutch Harbor, AK

9:57 AM AKDT on July 05, 2015 (GMT -0800)
Dutch Harbor | | Change Station
CLOSE
Current Station
Airport
Location: Dutch Harbor,
Elevation: 13 ft
Nearby Weather Stations

Elev 13 ft 53.90 °N, 166.54 °W | Updated 12 minutes ago

Light Rain
Light Rain Mist
52 °F
Feels Like 52 °F
N
13
Wind Variable Wind from East

Today
High -- | Low -- °F
--% Chance of Precip.
Yesterday
High -- | Low -- °F
Precip. -- in
6:46 AM 11:38 PM
Waning Gibbous, 83% visible
Pressure 29.27 in
Visibility 6.0 miles
Clouds Mostly Cloudy 1000 ft
Overcast 1900 ft
Dew Point 48 °F
Humidity 88%
Rainfall 0.43 in
Snow Depth Not available.
UV 1 out of 12
Pollen Not available.
Air Quality Not available.
Flu Activity Not available.
SPECI PADU 051745Z 08011KT 6SM -RA BR BKN010 OVC019 11/09 A2927 RMK AO2 BLK WTR NE-E AND W-NW VIS NE 4 CS P0005

More Conditions Fewer Conditions

Pressure 29.27 in
Visibility 6.0 miles
Clouds Mostly Cloudy 1000 ft
Overcast 1900 ft
Dew Point 48 °F
Humidity 88%
Rainfall 0.43 in
Snow Depth Not available.
UV 1 out of 12
Pollen Not available.
Air Quality Not available.
Flu Activity Not available.
SPECI PADU 051745Z 08011KT 6SM -RA BR BKN010 OVC019 11/09 A2927 RMK AO2 BLK WTR NE-E AND W-NW VIS NE 4 CS P0005

More Conditions Fewer Conditions

10-Day Weather Forecast

×

Almanac

Astronomy

Jul. 05, 2015 Rise Set
Actual Time
Civil Twilight
Nautical Twilight
Astronomical Twilight
Moon
Length of Visible Light
Length of Day
Tomorrow will be .
, % of the Moon is Illuminated

Today's Extremes

State Highs State Lows

Community

WunderPhotos

Upload Photos

1,835,327 photos uploaded!

WunderBlogs® & News

Nearby

Air Quality

  Air Quality AQ Index Pollutant
Not available.

Snow Depth

Station Depth Elevation

Earthquake Activity

City Distance Mag. Time & Date
Minimum magnitude displayed is 2.5.

Coastal Water Temperatures

Place Temperature

Stations

Nearby Weather Stations

Station Location Temp. Windchill Dew Point Humidity Wind Precip. Elev Updated Type